createdAt,value
2019-02-10T00:01:34.097Z,16.23
2019-02-10T00:04:22.980Z,19.53
2019-02-10T00:07:12.265Z,14.50
2019-02-10T00:10:01.852Z,13.20
2019-02-10T00:13:25.340Z,15.00
2019-02-10T00:16:21.861Z,19.30
2019-02-10T00:19:10.302Z,17.03
2019-02-10T00:21:59.413Z,15.23
2019-02-10T00:24:48.688Z,15.50
2019-02-10T00:27:38.155Z,16.80
2019-02-10T00:30:08.536Z,18.07
2019-02-10T00:32:58.104Z,18.90
2019-02-10T00:35:47.287Z,16.70
2019-02-10T00:38:36.638Z,11.67
2019-02-10T00:41:25.787Z,21.23
2019-02-10T00:44:14.781Z,14.93
2019-02-10T00:47:04.258Z,22.77
2019-02-10T00:49:53.229Z,15.40
2019-02-10T00:52:42.237Z,30.10
2019-02-10T00:55:30.981Z,11.90
2019-02-10T00:58:19.588Z,17.00
2019-02-10T01:01:08.698Z,13.57
2019-02-10T01:03:58.009Z,19.60
2019-02-10T01:06:47.001Z,16.77
2019-02-10T01:09:35.874Z,17.97
2019-02-10T01:12:18.519Z,18.10
2019-02-10T01:15:07.396Z,16.17
2019-02-10T01:17:56.265Z,15.63
2019-02-10T01:20:45.359Z,15.53
2019-02-10T01:23:34.618Z,14.27
2019-02-10T01:26:24.620Z,12.30
2019-02-10T01:29:13.971Z,15.87
2019-02-10T01:32:02.457Z,16.83
2019-02-10T01:34:52.977Z,18.30
2019-02-10T01:37:42.561Z,17.57
2019-02-10T01:40:32.577Z,21.97
2019-02-10T01:43:21.815Z,17.67
2019-02-10T01:46:10.763Z,20.40
2019-02-10T01:49:00.388Z,18.60
2019-02-10T01:51:49.367Z,18.30
2019-02-10T01:54:37.984Z,22.13
2019-02-10T01:57:27.017Z,15.80
2019-02-10T02:00:16.760Z,17.47
2019-02-10T02:03:06.284Z,14.07
2019-02-10T02:05:55.102Z,17.17
2019-02-10T02:08:43.993Z,14.53
2019-02-10T02:11:32.850Z,18.20
2019-02-10T02:14:22.451Z,16.10
2019-02-10T02:17:11.645Z,20.23
2019-02-10T02:20:00.865Z,17.20
2019-02-10T02:22:49.622Z,15.63
2019-02-10T02:25:38.999Z,20.83
2019-02-10T02:28:27.892Z,17.07
2019-02-10T02:31:16.655Z,23.20
2019-02-10T02:34:05.305Z,22.90
2019-02-10T02:36:53.895Z,22.80
2019-02-10T02:39:43.171Z,20.17
2019-02-10T02:42:32.283Z,21.17
2019-02-10T02:45:21.088Z,19.27
2019-02-10T02:48:10.463Z,19.10
2019-02-10T02:51:01.027Z,13.87
2019-02-10T02:53:50.506Z,15.73
2019-02-10T02:56:39.505Z,15.70
2019-02-10T02:59:28.529Z,18.63
2019-02-10T03:02:17.373Z,20.50
2019-02-10T03:05:07.500Z,15.03
2019-02-10T03:07:56.656Z,28.77
2019-02-10T03:10:45.670Z,31.70
2019-02-10T03:13:35.057Z,33.40
2019-02-10T03:16:24.280Z,20.07
2019-02-10T03:19:13.019Z,22.00
2019-02-10T03:22:02.222Z,21.30
2019-02-10T03:24:51.345Z,20.50
2019-02-10T03:27:40.328Z,32.20
2019-02-10T03:30:29.239Z,25.10
2019-02-10T03:33:17.967Z,30.93
2019-02-10T03:36:06.905Z,17.03
2019-02-10T03:38:56.025Z,20.90
2019-02-10T03:41:44.667Z,26.53
2019-02-10T03:44:33.220Z,23.90
2019-02-10T03:47:22.429Z,26.17
2019-02-10T03:50:04.933Z,19.80
2019-02-10T03:52:53.771Z,31.17
2019-02-10T03:55:42.452Z,24.20
2019-02-10T03:58:31.677Z,20.13
2019-02-10T04:01:11.102Z,22.57
2019-02-10T04:04:00.232Z,19.97
2019-02-10T04:06:49.593Z,21.97
2019-02-10T04:09:39.048Z,23.60
2019-02-10T04:12:27.749Z,16.40
2019-02-10T04:15:17.396Z,27.37
2019-02-10T04:18:06.510Z,19.30
2019-02-10T04:20:55.979Z,20.67
2019-02-10T04:23:44.640Z,19.63
2019-02-10T04:26:34.362Z,19.60
2019-02-10T04:29:23.556Z,19.90
2019-02-10T04:32:12.720Z,24.53
2019-02-10T04:35:01.921Z,21.60
2019-02-10T04:37:51.120Z,15.50
2019-02-10T04:40:40.286Z,26.70
2019-02-10T04:43:10.790Z,20.47
2019-02-10T04:46:00.082Z,30.00
2019-02-10T04:48:49.410Z,24.60
2019-02-10T04:51:38.529Z,19.47
2019-02-10T04:54:28.016Z,25.07
2019-02-10T04:57:17.068Z,20.37
2019-02-10T05:00:07.164Z,15.20
2019-02-10T05:02:56.176Z,18.80
2019-02-10T05:05:45.044Z,18.80
2019-02-10T05:08:34.361Z,26.10
2019-02-10T05:11:23.859Z,17.43
2019-02-10T05:14:13.033Z,20.30
2019-02-10T05:17:02.123Z,19.50
2019-02-10T05:19:51.029Z,24.67
2019-02-10T05:22:40.385Z,19.00
2019-02-10T05:25:29.051Z,14.53
2019-02-10T05:28:18.320Z,15.20
2019-02-10T05:31:07.574Z,20.50
2019-02-10T05:33:56.673Z,18.40
2019-02-10T05:36:45.183Z,25.30
2019-02-10T05:39:34.275Z,19.23
2019-02-10T05:42:23.229Z,14.53
2019-02-10T05:45:02.546Z,27.57
2019-02-10T05:47:51.833Z,13.57
2019-02-10T05:50:40.819Z,11.43
2019-02-10T05:53:30.195Z,12.70
2019-02-10T05:56:19.210Z,15.53
2019-02-10T05:59:09.327Z,12.73
2019-02-10T06:02:05.245Z,24.63
2019-02-10T06:04:53.638Z,9.70
2019-02-10T06:07:42.350Z,12.43
2019-02-10T06:10:31.617Z,14.30
2019-02-10T06:13:20.861Z,16.77
2019-02-10T06:16:09.782Z,12.50
2019-02-10T06:18:58.948Z,14.40
2019-02-10T06:21:47.728Z,10.30
2019-02-10T06:24:37.175Z,16.30
2019-02-10T06:27:07.297Z,6.90
2019-02-10T06:29:56.413Z,11.63
2019-02-10T06:32:45.785Z,12.30
2019-02-10T06:35:36.048Z,10.17
2019-02-10T06:38:25.484Z,9.10
2019-02-10T06:41:14.726Z,9.73
2019-02-10T06:44:03.971Z,14.27
2019-02-10T06:46:53.019Z,8.40
2019-02-10T06:49:41.860Z,5.50
2019-02-10T06:52:31.260Z,11.30
2019-02-10T06:55:20.641Z,14.90
2019-02-10T06:58:10.140Z,10.43
2019-02-10T07:01:17.123Z,12.17
2019-02-10T07:04:19.382Z,4.50
2019-02-10T07:07:08.584Z,9.33
2019-02-10T07:09:57.433Z,7.30
2019-02-10T07:12:50.563Z,6.83
2019-02-10T07:16:15.403Z,4.03
2019-02-10T07:19:40.664Z,3.97
2019-02-10T07:22:54.892Z,3.70
2019-02-10T07:26:04.098Z,5.23
2019-02-10T07:29:31.065Z,3.10
2019-02-10T07:32:27.448Z,2.83
2019-02-10T07:35:53.200Z,3.10
2019-02-10T07:39:08.989Z,5.37
2019-02-10T07:42:30.433Z,2.47
2019-02-10T07:45:50.146Z,2.27
2019-02-10T07:49:16.611Z,2.40
2019-02-10T07:52:20.153Z,2.40
2019-02-10T07:55:59.826Z,4.83
2019-02-10T07:59:21.005Z,2.60
2019-02-10T08:03:04.065Z,2.50
2019-02-10T08:06:44.150Z,2.47
2019-02-10T08:09:55.003Z,2.47
2019-02-10T08:13:03.075Z,2.30
2019-02-10T08:15:54.177Z,2.10
2019-02-10T08:19:04.285Z,2.23
2019-02-10T08:22:38.211Z,5.20
2019-02-10T08:26:14.130Z,2.43
2019-02-10T08:29:50.826Z,7.07
2019-02-10T08:33:01.390Z,2.60
2019-02-10T08:36:21.056Z,2.27
2019-02-10T08:40:02.627Z,3.23
2019-02-10T08:43:32.303Z,3.20
2019-02-10T08:46:44.808Z,4.07
2019-02-10T08:50:17.378Z,2.47
2019-02-10T08:53:13.696Z,2.33
2019-02-10T08:55:44.302Z,2.30
2019-02-10T08:58:33.421Z,3.70
2019-02-10T09:01:22.364Z,3.13
2019-02-10T09:04:11.800Z,3.10
2019-02-10T09:07:01.335Z,2.20
2019-02-10T09:09:51.203Z,2.10
2019-02-10T09:12:41.356Z,2.23
2019-02-10T09:15:31.008Z,2.20
2019-02-10T09:18:20.616Z,2.10
2019-02-10T09:21:09.734Z,2.37
2019-02-10T09:23:59.097Z,16.43
2019-02-10T09:26:39.473Z,3.20
2019-02-10T09:29:28.714Z,1.90
2019-02-10T09:32:18.315Z,2.13
2019-02-10T09:35:08.149Z,2.70
2019-02-10T09:37:57.986Z,1.83
2019-02-10T09:40:47.031Z,4.20
2019-02-10T09:43:36.373Z,1.90
2019-02-10T09:46:25.330Z,2.93
2019-02-10T09:49:14.362Z,3.97
2019-02-10T09:52:03.841Z,1.43
2019-02-10T09:54:53.435Z,1.77
2019-02-10T09:57:42.299Z,1.70
2019-02-10T10:00:31.891Z,1.93
2019-02-10T10:03:21.339Z,2.00
2019-02-10T10:06:10.696Z,5.50
2019-02-10T10:08:59.297Z,2.83
2019-02-10T10:11:48.641Z,2.33
2019-02-10T10:14:38.021Z,2.53
2019-02-10T10:17:26.973Z,2.10
2019-02-10T10:20:16.907Z,2.03
2019-02-10T10:23:06.006Z,2.50
2019-02-10T10:25:55.714Z,1.80
2019-02-10T10:28:44.610Z,2.20
2019-02-10T10:31:33.867Z,1.90
2019-02-10T10:34:22.672Z,2.60
2019-02-10T10:37:11.833Z,2.20
2019-02-10T10:40:01.129Z,2.30
2019-02-10T10:42:50.915Z,2.33
2019-02-10T10:45:40.374Z,1.90
2019-02-10T10:48:29.708Z,2.10
2019-02-10T10:51:18.725Z,1.80
2019-02-10T10:54:07.792Z,4.13
2019-02-10T10:56:56.624Z,2.13
2019-02-10T10:59:45.295Z,2.70
2019-02-10T11:02:33.786Z,1.83
2019-02-10T11:05:23.260Z,2.40
2019-02-10T11:08:12.573Z,8.43
2019-02-10T11:11:01.783Z,2.00
2019-02-10T11:13:51.262Z,2.00
2019-02-10T11:16:40.722Z,2.23
2019-02-10T11:19:30.199Z,2.20
2019-02-10T11:22:19.840Z,2.50
2019-02-10T11:25:09.284Z,1.80
2019-02-10T11:27:58.599Z,4.00
2019-02-10T11:30:47.615Z,1.83
2019-02-10T11:33:36.588Z,2.10
2019-02-10T11:36:26.241Z,2.13
2019-02-10T11:39:15.951Z,3.00
2019-02-10T11:42:04.765Z,2.70
2019-02-10T11:44:54.071Z,2.50
2019-02-10T11:47:44.646Z,2.17
2019-02-10T11:50:34.534Z,2.13
2019-02-10T11:53:24.930Z,2.27
2019-02-10T11:56:14.427Z,2.70
2019-02-10T11:59:04.085Z,2.33
2019-02-10T12:01:53.246Z,2.13
2019-02-10T12:04:43.892Z,4.13
2019-02-10T12:07:34.269Z,2.70
2019-02-10T12:10:24.450Z,4.00
2019-02-10T12:13:13.815Z,2.20
2019-02-10T12:16:02.886Z,7.10
2019-02-10T12:18:51.743Z,2.80
2019-02-10T12:21:40.344Z,3.33
2019-02-10T12:27:12.563Z,4.80
2019-02-10T12:30:03.226Z,4.93
2019-02-10T12:32:52.981Z,3.00
2019-02-10T12:35:42.608Z,2.70
2019-02-10T12:38:32.639Z,5.27
2019-02-10T12:41:22.321Z,3.23
2019-02-10T12:44:12.080Z,3.13
2019-02-10T12:47:01.528Z,5.20
2019-02-10T12:49:51.633Z,4.43
2019-02-10T12:52:40.469Z,3.70
2019-02-10T12:55:29.950Z,4.17
2019-02-10T12:58:19.453Z,7.40
2019-02-10T13:01:08.761Z,4.73
2019-02-10T13:03:58.467Z,4.00
2019-02-10T13:06:48.252Z,4.30
2019-02-10T13:09:38.727Z,4.93
2019-02-10T13:12:28.458Z,4.30
2019-02-10T13:15:17.170Z,5.40
2019-02-10T13:18:09.217Z,4.70
2019-02-10T13:20:39.719Z,4.80
2019-02-10T13:23:29.245Z,3.70
2019-02-10T13:26:18.773Z,4.17
2019-02-10T13:29:08.379Z,3.77
2019-02-10T13:31:47.351Z,3.20
2019-02-10T13:34:36.629Z,3.00
2019-02-10T13:37:26.029Z,4.73
2019-02-10T13:40:17.226Z,2.90
2019-02-10T13:43:06.995Z,6.20
2019-02-10T13:45:55.990Z,2.90
2019-02-10T13:48:45.800Z,3.90
2019-02-10T13:51:35.177Z,3.90
2019-02-10T13:54:24.186Z,4.57
2019-02-10T13:57:14.409Z,5.13
2019-02-10T14:00:00.547Z,7.30
2019-02-10T14:02:50.082Z,5.03
2019-02-10T14:05:39.094Z,6.00
2019-02-10T14:08:28.217Z,5.30
2019-02-10T14:11:18.324Z,6.97
2019-02-10T14:14:08.259Z,5.20
2019-02-10T14:16:57.104Z,5.40
2019-02-10T14:19:46.577Z,5.57
2019-02-10T14:22:35.656Z,6.43
2019-02-10T14:25:25.012Z,4.43
2019-02-10T14:28:14.267Z,3.40
2019-02-10T14:31:03.298Z,5.50
2019-02-10T14:33:52.378Z,0.90
2019-02-10T14:36:41.532Z,0.80
2019-02-10T14:39:31.287Z,0.63
2019-02-10T14:42:20.802Z,0.70
2019-02-10T14:45:10.415Z,0.63
2019-02-10T14:47:59.600Z,0.73
2019-02-10T14:50:48.624Z,0.80
2019-02-10T14:53:38.856Z,0.60
2019-02-10T14:56:28.439Z,0.80
2019-02-10T14:59:18.229Z,0.87
2019-02-10T15:01:48.308Z,0.60
2019-02-10T15:04:37.877Z,0.70
2019-02-10T15:07:27.037Z,0.73
2019-02-10T15:10:16.987Z,0.70
2019-02-10T15:13:05.827Z,0.60
2019-02-10T15:15:55.371Z,0.60
2019-02-10T15:18:45.024Z,0.60
2019-02-10T15:21:34.035Z,1.33
2019-02-10T15:24:23.165Z,0.77
2019-02-10T15:27:12.928Z,0.60
2019-02-10T15:30:02.462Z,0.60
2019-02-10T15:32:51.426Z,0.73
2019-02-10T15:35:40.775Z,0.70
2019-02-10T15:38:30.496Z,0.70
2019-02-10T15:41:19.812Z,0.80
2019-02-10T15:44:09.106Z,0.70
2019-02-10T15:46:58.557Z,0.93
2019-02-10T15:49:47.593Z,0.70
2019-02-10T15:52:36.217Z,0.80
2019-02-10T15:55:25.758Z,0.77
2019-02-10T15:58:15.551Z,0.90
2019-02-10T16:01:04.549Z,0.60
2019-02-10T16:03:53.883Z,0.80
2019-02-10T16:06:43.103Z,1.00
2019-02-10T16:09:32.444Z,0.70
2019-02-10T16:12:21.773Z,0.70
2019-02-10T16:14:52.042Z,0.70
2019-02-10T16:17:41.085Z,0.73
2019-02-10T16:20:30.581Z,0.90
2019-02-10T16:23:20.630Z,1.10
2019-02-10T16:26:09.863Z,0.80
2019-02-10T16:28:59.551Z,0.60
2019-02-10T16:31:49.805Z,0.80
2019-02-10T16:34:39.100Z,0.93
2019-02-10T16:37:28.566Z,0.70
2019-02-10T16:40:18.109Z,0.80
2019-02-10T16:43:07.664Z,1.00
2019-02-10T16:45:57.072Z,0.70
2019-02-10T16:48:28.156Z,0.70
2019-02-10T16:51:17.630Z,0.70
2019-02-10T16:54:09.418Z,0.70
2019-02-10T16:56:59.387Z,1.00
2019-02-10T16:59:29.605Z,0.83
2019-02-10T17:02:18.975Z,0.77
2019-02-10T17:05:08.425Z,0.63
2019-02-10T17:07:57.584Z,0.70
2019-02-10T17:10:46.987Z,0.63
2019-02-10T17:13:36.103Z,1.00
2019-02-10T17:16:25.030Z,0.83
2019-02-10T17:19:14.357Z,2.00
2019-02-10T17:22:03.295Z,2.00
2019-02-10T17:24:52.442Z,1.10
2019-02-10T17:27:41.255Z,0.90
2019-02-10T17:30:31.119Z,0.77
2019-02-10T17:33:20.629Z,0.90
2019-02-10T17:36:09.756Z,0.80
2019-02-10T17:38:58.608Z,0.80
2019-02-10T17:41:39.566Z,0.93
2019-02-10T17:44:09.953Z,1.20
2019-02-10T17:46:58.649Z,1.20
2019-02-10T17:49:47.493Z,2.83
2019-02-10T17:52:37.001Z,0.97
2019-02-10T17:55:26.692Z,1.00
2019-02-10T17:58:16.132Z,0.93
2019-02-10T18:01:06.190Z,0.80
2019-02-10T18:03:55.544Z,0.70
2019-02-10T18:06:44.950Z,1.30
2019-02-10T18:09:34.776Z,1.50
2019-02-10T18:12:24.654Z,0.90
2019-02-10T18:15:38.942Z,0.93
2019-02-10T18:18:37.819Z,1.03
2019-02-10T18:21:46.516Z,0.93
2019-02-10T18:24:53.749Z,1.20
2019-02-10T18:28:14.205Z,1.37
2019-02-10T18:31:24.756Z,0.70
2019-02-10T18:34:26.158Z,2.50
2019-02-10T18:37:30.376Z,0.60
2019-02-10T18:40:47.523Z,1.17
2019-02-10T18:44:01.537Z,1.10
2019-02-10T18:47:06.991Z,0.87
2019-02-10T18:50:16.277Z,0.90
2019-02-10T18:53:28.009Z,1.60
2019-02-10T18:56:32.288Z,0.90
2019-02-10T18:59:34.872Z,1.00
2019-02-10T19:02:46.353Z,1.33
2019-02-10T19:05:44.029Z,0.93
2019-02-10T19:09:03.438Z,1.30
2019-02-10T19:12:11.151Z,1.00
2019-02-10T19:15:11.202Z,2.40
2019-02-10T19:18:13.662Z,1.23
2019-02-10T19:21:20.668Z,1.00
2019-02-10T19:24:43.936Z,1.30
2019-02-10T19:27:58.549Z,1.00
2019-02-10T19:30:57.840Z,0.70
2019-02-10T19:34:15.515Z,1.03
2019-02-10T19:37:29.757Z,0.87
2019-02-10T19:40:36.714Z,1.07
2019-02-10T19:43:48.150Z,0.80
2019-02-10T19:46:55.872Z,0.73
2019-02-10T19:50:14.196Z,1.00
2019-02-10T19:53:11.577Z,0.80
2019-02-10T19:56:38.440Z,0.70
2019-02-10T19:59:45.737Z,0.70
2019-02-10T20:02:51.615Z,1.93
2019-02-10T20:05:51.319Z,0.90
2019-02-10T20:08:50.943Z,0.70
2019-02-10T20:11:46.788Z,1.30
2019-02-10T20:15:10.226Z,0.83
2019-02-10T20:18:11.468Z,2.10
2019-02-10T20:21:18.794Z,0.90
2019-02-10T20:24:27.091Z,0.83
2019-02-10T20:27:50.512Z,1.17
2019-02-10T20:30:54.460Z,0.80
2019-02-10T20:34:06.333Z,1.40
2019-02-10T20:36:54.592Z,0.70
2019-02-10T20:39:50.243Z,1.23
2019-02-10T20:42:42.716Z,0.80
2019-02-10T20:45:43.916Z,1.77
2019-02-10T20:48:31.889Z,0.70
2019-02-10T20:51:18.483Z,1.20
2019-02-10T20:54:20.052Z,0.80
2019-02-10T20:57:03.431Z,0.80
2019-02-10T20:59:46.765Z,0.80
2019-02-10T21:02:30.583Z,1.50
2019-02-10T21:05:32.314Z,0.80
2019-02-10T21:08:24.462Z,0.83
2019-02-10T21:11:25.542Z,0.70
2019-02-10T21:14:20.658Z,0.60
2019-02-10T21:17:09.762Z,0.70
2019-02-10T21:19:50.354Z,0.70
2019-02-10T21:22:38.690Z,0.70
2019-02-10T21:25:19.188Z,0.60
2019-02-10T21:28:01.995Z,0.60
2019-02-10T21:30:50.950Z,0.80
2019-02-10T21:33:41.434Z,0.67
2019-02-10T21:36:29.189Z,0.83
2019-02-10T21:39:21.887Z,0.70
2019-02-10T21:42:07.196Z,0.80
2019-02-10T21:45:11.835Z,0.70
2019-02-10T21:48:04.352Z,0.80
2019-02-10T21:50:35.181Z,0.70
2019-02-10T21:53:05.530Z,0.77
2019-02-10T21:55:36.017Z,0.60
2019-02-10T21:58:06.578Z,0.83
2019-02-10T22:00:37.181Z,1.10
2019-02-10T22:03:07.749Z,0.70
2019-02-10T22:05:38.060Z,1.07
2019-02-10T22:08:08.199Z,0.70
2019-02-10T22:10:38.683Z,0.80
2019-02-10T22:13:08.976Z,0.70
2019-02-10T22:15:39.121Z,0.70
2019-02-10T22:18:09.374Z,0.80
2019-02-10T22:20:58.180Z,0.70
2019-02-10T22:23:47.572Z,0.70
2019-02-10T22:26:36.702Z,0.93
2019-02-10T22:29:26.026Z,0.73
2019-02-10T22:32:15.595Z,1.10
2019-02-10T22:35:04.494Z,0.60
2019-02-10T22:37:54.475Z,0.60
2019-02-10T22:40:44.112Z,0.70
2019-02-10T22:43:33.966Z,0.70
2019-02-10T22:46:23.415Z,0.70
2019-02-10T22:49:12.324Z,0.83
2019-02-10T22:52:01.204Z,1.00
2019-02-10T22:54:50.633Z,0.70
2019-02-10T22:57:41.135Z,0.60
2019-02-10T23:00:48.126Z,0.90
2019-02-10T23:03:37.474Z,0.63
2019-02-10T23:06:20.777Z,0.80
2019-02-10T23:09:13.975Z,0.80
2019-02-10T23:12:02.863Z,0.70
2019-02-10T23:14:52.662Z,0.67
2019-02-10T23:17:41.843Z,0.80
2019-02-10T23:20:30.301Z,0.87
2019-02-10T23:23:19.602Z,0.93
2019-02-10T23:26:08.274Z,0.70
2019-02-10T23:28:57.179Z,0.50
2019-02-10T23:31:46.139Z,0.63
2019-02-10T23:34:35.175Z,1.00
2019-02-10T23:37:23.872Z,0.60
2019-02-10T23:40:12.980Z,0.70
2019-02-10T23:43:02.449Z,0.93
2019-02-10T23:45:52.174Z,0.60
2019-02-10T23:48:41.980Z,0.80
2019-02-10T23:51:31.374Z,0.70
2019-02-10T23:54:27.204Z,1.10
2019-02-10T23:57:15.633Z,0.60
